Time;durP1;ratioP1;P1;durP2;ratioP2;P2;SDS_P1;SDS_P2;PMS_P1;PMS_P2;Temp;Humidity;BMP_temperature;BMP_pressure;BME280_temperature;BME280_humidity;BME280_pressure;Samples;Min_cycle;Max_cycle;Signal;HPM_P1;HPM_P2
2021/11/05 00:00:28;;;;;;;10.05;3.63;;;5.20;99.90;;;;;;2087956;28;20053;-80
2021/11/05 00:01:28;;;;;;;10.38;3.95;;;5.20;99.90;;;;;;2079337;28;20053;-80
2021/11/05 00:02:29;;;;;;;6.43;3.42;;;5.30;99.90;;;;;;2079186;28;20056;-80
2021/11/05 00:03:30;;;;;;;10.60;3.85;;;5.30;99.90;;;;;;2084180;28;20432;-80
2021/11/05 00:04:31;;;;;;;11.30;4.63;;;5.30;99.90;;;;;;2088126;28;20025;-80
2021/11/05 00:05:32;;;;;;;8.13;3.95;;;5.30;99.90;;;;;;2096521;28;20044;-80
2021/11/05 00:06:33;;;;;;;14.25;4.50;;;5.40;99.90;;;;;;2095602;28;20032;-80
2021/11/05 00:07:33;;;;;;;10.35;4.43;;;5.40;99.90;;;;;;2082503;28;20036;-79
2021/11/05 00:08:34;;;;;;;11.80;3.92;;;5.40;99.90;;;;;;2084179;28;20022;-80
2021/11/05 00:09:35;;;;;;;8.07;3.83;;;5.40;99.90;;;;;;2082713;28;20029;-79
2021/11/05 00:10:41;;;;;;;9.57;3.63;;;5.40;99.90;;;;;;2080146;28;20030;-78
2021/11/05 00:11:41;;;;;;;11.00;3.80;;;5.40;99.90;;;;;;2097701;28;20412;-78
2021/11/05 00:12:43;;;;;;;11.73;4.00;;;5.40;99.90;;;;;;2095145;28;20040;-78
2021/11/05 00:13:44;;;;;;;8.85;3.80;;;5.40;99.90;;;;;;2086985;28;20147;-78
2021/11/05 00:14:44;;;;;;;10.70;3.47;;;5.40;99.90;;;;;;2083155;28;20029;-79
2021/11/05 00:15:45;;;;;;;8.55;3.63;;;5.40;99.90;;;;;;2073468;28;20102;-79
2021/11/05 00:16:46;;;;;;;9.63;3.50;;;5.40;99.90;;;;;;2075003;28;20513;-78
2021/11/05 00:17:47;;;;;;;11.18;4.15;;;5.40;99.90;;;;;;2076794;28;20022;-78
2021/11/05 00:18:47;;;;;;;7.72;3.55;;;5.40;99.90;;;;;;2068811;28;20490;-78
2021/11/05 00:19:48;;;;;;;7.90;3.40;;;5.40;99.90;;;;;;2073364;28;20069;-78
2021/11/05 00:20:49;;;;;;;7.63;3.50;;;5.40;99.90;;;;;;2090526;28;20029;-78
2021/11/05 00:21:49;;;;;;;6.55;3.30;;;5.30;99.90;;;;;;2086575;28;20055;-78
2021/11/05 00:22:50;;;;;;;9.43;3.55;;;5.30;99.90;;;;;;2074386;28;20026;-78
2021/11/05 00:23:51;;;;;;;9.57;3.17;;;5.30;99.90;;;;;;2089321;28;20029;-78
2021/11/05 00:24:52;;;;;;;8.65;3.50;;;5.30;99.90;;;;;;2090524;28;20109;-78
2021/11/05 00:25:52;;;;;;;9.35;3.35;;;5.30;99.90;;;;;;2082439;28;20029;-78
2021/11/05 00:26:53;;;;;;;9.70;2.97;;;5.20;99.90;;;;;;2081261;28;20045;-79
2021/11/05 00:27:54;;;;;;;5.35;2.88;;;5.20;99.90;;;;;;2074241;28;20025;-79
2021/11/05 00:28:55;;;;;;;8.73;2.92;;;5.20;99.90;;;;;;2078273;28;20156;-78
2021/11/05 00:29:55;;;;;;;6.75;3.03;;;5.20;99.90;;;;;;2081103;28;20029;-78
2021/11/05 00:30:56;;;;;;;14.75;3.47;;;5.20;99.90;;;;;;2066107;28;20022;-78
2021/11/05 00:31:57;;;;;;;8.18;3.63;;;5.10;99.90;;;;;;2085948;28;20017;-78
2021/11/05 00:32:58;;;;;;;8.07;3.13;;;5.10;99.90;;;;;;2090528;28;20028;-78
2021/11/05 00:33:58;;;;;;;10.43;3.00;;;5.10;99.90;;;;;;2081845;28;20029;-79
2021/11/05 00:34:59;;;;;;;10.57;3.75;;;5.00;99.90;;;;;;2090411;28;20028;-78
2021/11/05 00:36:00;;;;;;;7.43;3.50;;;5.00;99.90;;;;;;2090883;28;20032;-78
2021/11/05 00:37:01;;;;;;;8.27;3.47;;;5.00;99.90;;;;;;2082211;28;20513;-77
2021/11/05 00:38:02;;;;;;;10.07;3.47;;;5.00;99.90;;;;;;2090092;28;20087;-78
2021/11/05 00:39:03;;;;;;;8.65;3.20;;;4.90;99.90;;;;;;2091385;28;20048;-78
2021/11/05 00:40:06;;;;;;;6.15;3.40;;;4.80;99.90;;;;;;2081738;28;20405;-79
2021/11/05 00:41:07;;;;;;;8.27;3.50;;;4.80;99.90;;;;;;2082100;28;20120;-78
2021/11/05 00:42:08;;;;;;;5.85;3.13;;;4.70;99.90;;;;;;2074221;28;20168;-78
2021/11/05 00:43:09;;;;;;;6.07;2.97;;;4.70;99.90;;;;;;2081224;28;20018;-77
2021/11/05 00:44:10;;;;;;;10.25;3.50;;;4.70;99.90;;;;;;2090210;28;20609;-78
2021/11/05 00:45:12;;;;;;;6.35;3.28;;;4.70;99.90;;;;;;2090182;28;20017;-77
2021/11/05 00:46:12;;;;;;;;;;;4.60;99.90;;;;;;2080693;28;20117;-78
2021/11/05 00:47:15;;;;;;;8.05;3.10;;;4.60;99.90;;;;;;2082297;28;19927;-78
2021/11/05 00:48:15;;;;;;;5.47;3.25;;;4.60;99.90;;;;;;2081992;28;20060;-79
2021/11/05 00:49:16;;;;;;;7.88;3.33;;;4.50;99.90;;;;;;2072640;28;20025;-79
2021/11/05 00:50:17;;;;;;;10.45;3.08;;;4.50;99.90;;;;;;2072913;28;20026;-78
2021/11/05 00:51:18;;;;;;;6.60;3.10;;;4.50;99.90;;;;;;2075278;28;20029;-78
2021/11/05 00:52:19;;;;;;;10.77;2.92;;;4.50;99.90;;;;;;2098457;28;20027;-79
2021/11/05 00:53:20;;;;;;;7.05;2.92;;;4.60;99.90;;;;;;2094021;28;20057;-79
2021/11/05 00:54:20;;;;;;;7.47;2.80;;;4.60;99.90;;;;;;2074114;28;20026;-78
2021/11/05 00:55:21;;;;;;;5.63;3.33;;;4.60;99.90;;;;;;2081996;28;20115;-78
2021/11/05 00:56:22;;;;;;;11.35;3.35;;;4.60;99.90;;;;;;2074075;28;20025;-79
2021/11/05 00:57:23;;;;;;;7.40;2.72;;;4.60;99.90;;;;;;2074238;28;20029;-78
2021/11/05 00:58:23;;;;;;;6.60;2.70;;;4.60;99.90;;;;;;2071839;28;20104;-78
2021/11/05 00:59:24;;;;;;;7.63;2.60;;;4.60;99.90;;;;;;2073776;28;20366;-79
2021/11/05 01:00:25;;;;;;;9.98;2.90;;;4.60;99.90;;;;;;2072342;28;20030;-78
2021/11/05 01:01:26;;;;;;;8.93;2.95;;;4.60;99.90;;;;;;2073980;28;20026;-79
2021/11/05 01:02:28;;;;;;;7.68;2.78;;;4.60;99.90;;;;;;2089333;28;20408;-78
2021/11/05 01:03:28;;;;;;;12.13;2.63;;;4.60;99.90;;;;;;2086416;28;20036;-78
2021/11/05 01:04:29;;;;;;;6.68;2.88;;;4.60;99.90;;;;;;2074699;28;20045;-79
2021/11/05 01:05:30;;;;;;;6.38;2.80;;;4.60;99.90;;;;;;2073912;28;20030;-78
2021/11/05 01:06:31;;;;;;;8.05;3.10;;;4.60;99.90;;;;;;2073939;28;20022;-78
2021/11/05 01:07:31;;;;;;;8.00;3.03;;;4.60;99.90;;;;;;2074053;28;20503;-78
2021/11/05 01:08:32;;;;;;;5.78;2.67;;;4.50;99.90;;;;;;2073871;28;20018;-78
2021/11/05 01:09:33;;;;;;;9.90;2.92;;;4.50;99.90;;;;;;2090615;28;20060;-78
2021/11/05 01:10:38;;;;;;;5.25;2.70;;;4.40;99.90;;;;;;2089971;28;20112;-79
2021/11/05 01:11:38;;;;;;;6.47;2.88;;;4.30;99.90;;;;;;2080543;28;20089;-79
2021/11/05 01:12:39;;;;;;;6.05;2.97;;;4.30;99.90;;;;;;2065777;28;20033;-79
2021/11/05 01:13:40;;;;;;;6.50;2.60;;;4.30;99.90;;;;;;2085810;28;20104;-78
2021/11/05 01:14:41;;;;;;;9.05;2.90;;;4.30;99.90;;;;;;2090486;28;20420;-78
2021/11/05 01:15:42;;;;;;;9.05;3.03;;;4.30;99.90;;;;;;2075385;28;20038;-77
2021/11/05 01:16:42;;;;;;;6.72;2.47;;;4.30;99.90;;;;;;2066636;28;20279;-78
2021/11/05 01:17:43;;;;;;;10.75;3.88;;;4.40;99.90;;;;;;2090119;28;20032;-79
2021/11/05 01:18:45;;;;;;;6.50;2.63;;;4.40;99.90;;;;;;2090199;28;20529;-78
2021/11/05 01:19:46;;;;;;;9.25;2.80;;;4.40;99.90;;;;;;2081806;28;20408;-78
2021/11/05 01:20:47;;;;;;;6.95;2.80;;;4.40;99.90;;;;;;2081678;28;20030;-78
2021/11/05 01:21:48;;;;;;;7.18;2.60;;;4.40;99.90;;;;;;2088827;28;20037;-78
2021/11/05 01:22:48;;;;;;;6.68;2.30;;;4.40;99.90;;;;;;2088647;28;20024;-78
2021/11/05 01:23:49;;;;;;;7.55;2.42;;;4.40;99.90;;;;;;2074941;28;20034;-78
2021/11/05 01:24:50;;;;;;;8.13;2.60;;;4.40;99.90;;;;;;2066032;28;20018;-79
2021/11/05 01:25:51;;;;;;;9.15;2.67;;;4.30;99.90;;;;;;2073427;28;20026;-78
2021/11/05 01:26:52;;;;;;;8.98;2.38;;;4.20;99.90;;;;;;2081858;28;20022;-78
2021/11/05 01:27:53;;;;;;;8.93;3.35;;;4.20;99.90;;;;;;2088053;28;20179;-78
2021/11/05 01:28:55;;;;;;;7.70;2.13;;;4.10;99.90;;;;;;2088129;28;20043;-78
2021/11/05 01:29:58;;;;;;;6.32;2.10;;;4.10;99.90;;;;;;2090329;28;20036;-78
2021/11/05 01:30:59;;;;;;;9.80;2.80;;;4.00;99.90;;;;;;2089786;28;20558;-78
2021/11/05 01:32:00;;;;;;;5.07;2.22;;;4.00;99.90;;;;;;2081937;28;20121;-78
2021/11/05 01:33:06;;;;;;;9.43;2.22;;;4.10;99.90;;;;;;2088982;28;20084;-78
2021/11/05 01:34:07;;;;;;;5.68;2.05;;;4.10;99.90;;;;;;2087432;28;20505;-78
2021/11/05 01:35:10;;;;;;;4.20;2.08;;;4.10;99.90;;;;;;2076336;28;20025;-79
2021/11/05 01:36:12;;;;;;;7.72;2.20;;;4.20;99.90;;;;;;2074361;28;20585;-79
2021/11/05 01:37:12;;;;;;;4.93;2.28;;;4.20;99.90;;;;;;2080881;28;20017;-78
2021/11/05 01:38:13;;;;;;;3.58;2.35;;;4.30;99.90;;;;;;2090232;28;20033;-78
2021/11/05 01:39:16;;;;;;;7.35;2.30;;;4.40;99.90;;;;;;2084682;28;20043;-78
2021/11/05 01:40:17;;;;;;;9.98;2.25;;;4.50;99.90;;;;;;2073034;28;20030;-79
2021/11/05 01:41:18;;;;;;;6.43;2.38;;;4.50;99.90;;;;;;2079874;28;20088;-78
2021/11/05 01:42:19;;;;;;;7.85;2.75;;;4.60;99.90;;;;;;2072767;28;20444;-79
2021/11/05 01:43:21;;;;;;;7.13;2.10;;;4.60;99.90;;;;;;2089669;28;20048;-78
2021/11/05 01:44:25;;;;;;;5.43;2.22;;;4.70;99.90;;;;;;2089765;28;20178;-78
2021/11/05 01:45:26;;;;;;;5.00;2.25;;;4.70;99.90;;;;;;2090652;28;20028;-79
2021/11/05 01:46:27;;;;;;;10.57;2.33;;;4.70;99.90;;;;;;2089725;28;20029;-78
2021/11/05 01:47:27;;;;;;;7.40;2.53;;;4.70;99.90;;;;;;2073727;28;20398;-78
2021/11/05 01:48:28;;;;;;;7.18;2.22;;;4.70;99.90;;;;;;2073536;28;20434;-78
2021/11/05 01:49:29;;;;;;;7.57;1.90;;;4.70;99.90;;;;;;2081741;28;20426;-78
2021/11/05 01:50:30;;;;;;;8.85;2.00;;;4.80;99.90;;;;;;2073775;28;20448;-78
2021/11/05 01:51:31;;;;;;;3.75;1.80;;;4.80;99.90;;;;;;2069973;28;20019;-78
2021/11/05 01:52:32;;;;;;;4.22;1.85;;;4.80;99.90;;;;;;2085915;28;20056;-80
2021/11/05 01:53:33;;;;;;;8.90;2.08;;;4.90;99.90;;;;;;2089641;28;20040;-78
2021/11/05 01:54:34;;;;;;;7.53;2.17;;;4.90;99.90;;;;;;2073688;28;20026;-78
2021/11/05 01:55:35;;;;;;;7.30;2.13;;;5.00;99.90;;;;;;2073733;28;20036;-79
2021/11/05 01:56:37;;;;;;;3.03;1.52;;;5.00;99.90;;;;;;2078194;28;20060;-78
2021/11/05 01:57:38;;;;;;;7.22;1.83;;;5.00;99.90;;;;;;2073987;28;20063;-78
2021/11/05 01:58:39;;;;;;;5.32;1.83;;;5.00;99.90;;;;;;2073217;28;20030;-80
2021/11/05 01:59:40;;;;;;;5.50;1.67;;;5.00;99.90;;;;;;2081521;28;20076;-78
2021/11/05 02:00:41;;;;;;;5.90;2.40;;;5.10;99.90;;;;;;2089768;28;20040;-79
2021/11/05 02:01:42;;;;;;;7.13;1.45;;;5.10;99.90;;;;;;2089563;28;20471;-78
2021/11/05 02:02:43;;;;;;;4.03;1.58;;;5.20;99.90;;;;;;2081799;28;20056;-79
2021/11/05 02:03:44;;;;;;;4.60;1.63;;;5.20;99.90;;;;;;2080513;28;20024;-80
2021/11/05 02:04:45;;;;;;;7.72;1.52;;;5.20;99.90;;;;;;2089027;28;20037;-80
2021/11/05 02:05:50;;;;;;;3.28;1.58;;;5.30;99.90;;;;;;2088376;28;20528;-78
2021/11/05 02:06:51;;;;;;;8.60;1.85;;;5.30;99.90;;;;;;2073918;28;20493;-79
2021/11/05 02:07:53;;;;;;;6.22;1.48;;;5.30;99.90;;;;;;2081812;28;20022;-79
2021/11/05 02:08:55;;;;;;;;;;;5.40;99.90;;;;;;2074276;28;20059;-78
2021/11/05 02:09:57;;;;;;;6.50;1.58;;;5.40;99.90;;;;;;2081467;28;19912;-79
2021/11/05 02:11:02;;;;;;;4.82;1.45;;;5.40;99.90;;;;;;2073945;28;20018;-81
2021/11/05 02:12:03;;;;;;;4.25;1.38;;;5.40;99.90;;;;;;2073851;28;20582;-80
2021/11/05 02:13:05;;;;;;;4.75;1.10;;;5.40;99.90;;;;;;2080551;28;20499;-78
2021/11/05 02:14:10;;;;;;;5.20;1.67;;;5.40;99.90;;;;;;2089665;28;20047;-79
2021/11/05 02:15:13;;;;;;;4.32;1.38;;;5.40;99.90;;;;;;2088990;28;20029;-78
2021/11/05 02:16:14;;;;;;;3.47;1.40;;;5.40;99.90;;;;;;2081720;28;20029;-79
2021/11/05 02:17:15;;;;;;;8.30;1.50;;;5.40;99.90;;;;;;2081436;28;20025;-80
2021/11/05 02:18:16;;;;;;;3.45;1.40;;;5.40;99.90;;;;;;2073327;28;20030;-78
2021/11/05 02:19:19;;;;;;;9.45;1.85;;;5.50;99.90;;;;;;2080234;28;20430;-78
2021/11/05 02:20:23;;;;;;;5.35;1.13;;;5.50;99.90;;;;;;2073283;28;20076;-80
2021/11/05 02:21:36;;;;;;;3.72;1.33;;;5.50;99.90;;;;;;2073820;28;20030;-78
2021/11/05 02:22:37;;;;;;;4.15;1.33;;;5.50;99.90;;;;;;2091468;28;20047;-78
2021/11/05 02:23:38;;;;;;;4.40;1.40;;;5.50;99.90;;;;;;2084628;28;20418;-80
2021/11/05 02:24:39;;;;;;;3.63;1.52;;;5.50;99.90;;;;;;2065289;28;20060;-79
2021/11/05 02:25:40;;;;;;;3.17;1.10;;;5.50;99.90;;;;;;2071788;28;20025;-78
2021/11/05 02:26:42;;;;;;;2.35;1.17;;;5.50;99.90;;;;;;2089447;28;20025;-79
2021/11/05 02:27:43;;;;;;;1.92;1.08;;;5.40;99.90;;;;;;2089437;28;20025;-79
2021/11/05 02:28:44;;;;;;;9.07;1.83;;;5.30;99.90;;;;;;2073058;28;20014;-78
2021/11/05 02:29:45;;;;;;;3.05;1.20;;;5.30;99.90;;;;;;2081759;28;20080;-79
2021/11/05 02:30:46;;;;;;;3.80;1.20;;;5.30;99.90;;;;;;2089632;28;20323;-79
2021/11/05 02:31:47;;;;;;;3.90;1.30;;;5.20;99.90;;;;;;2074327;28;20030;-78
2021/11/05 02:32:48;;;;;;;5.90;1.40;;;5.20;99.90;;;;;;2081543;28;20111;-78
2021/11/05 02:33:49;;;;;;;6.82;1.65;;;5.10;99.90;;;;;;2081326;28;20264;-79
2021/11/05 02:34:50;;;;;;;5.20;1.63;;;5.10;99.90;;;;;;2081538;28;20759;-78
2021/11/05 02:35:51;;;;;;;5.05;1.30;;;5.00;99.90;;;;;;2065373;28;20080;-79
2021/11/05 02:36:53;;;;;;;5.05;1.40;;;5.00;99.90;;;;;;2081352;28;20041;-79
2021/11/05 02:37:54;;;;;;;7.18;1.20;;;4.90;99.90;;;;;;2081174;28;20075;-79
2021/11/05 02:38:56;;;;;;;4.72;1.60;;;4.80;99.90;;;;;;2077949;28;20029;-79
2021/11/05 02:39:57;;;;;;;3.78;1.38;;;4.70;99.90;;;;;;2066322;28;20122;-79
2021/11/05 02:40:57;;;;;;;4.75;1.35;;;4.70;99.90;;;;;;2089006;28;20146;-78
2021/11/05 02:41:58;;;;;;;6.07;2.17;;;4.70;99.90;;;;;;2089177;28;20025;-79
2021/11/05 02:43:01;;;;;;;6.20;1.77;;;4.70;99.90;;;;;;2089407;28;20107;-79
2021/11/05 02:44:03;;;;;;;4.28;1.50;;;4.70;99.90;;;;;;2089471;28;20040;-80
2021/11/05 02:45:05;;;;;;;5.97;1.70;;;4.70;99.90;;;;;;2073275;28;20057;-80
2021/11/05 02:46:06;;;;;;;6.03;1.67;;;4.70;99.90;;;;;;2081403;28;20056;-80
2021/11/05 02:47:25;;;;;;;4.00;1.55;;;4.70;99.90;;;;;;2073479;28;20449;-79
2021/11/05 02:48:27;;;;;;;4.53;1.60;;;4.70;99.90;;;;;;2079664;28;20060;-80
2021/11/05 02:49:28;;;;;;;5.53;1.92;;;4.70;99.90;;;;;;2069839;28;20026;-80
2021/11/05 02:50:28;;;;;;;6.38;1.50;;;4.70;99.90;;;;;;2073107;28;20049;-79
2021/11/05 02:51:30;;;;;;;5.38;1.92;;;4.70;99.90;;;;;;2081552;28;20099;-80
2021/11/05 02:52:30;;;;;;;3.23;1.50;;;4.80;99.90;;;;;;2073304;28;20061;-79
2021/11/05 02:53:31;;;;;;;5.78;1.50;;;4.80;99.90;;;;;;2073236;28;20293;-80
2021/11/05 02:54:32;;;;;;;5.38;1.73;;;4.80;99.90;;;;;;2081274;28;20079;-79
2021/11/05 02:55:33;;;;;;;3.08;1.60;;;4.80;99.90;;;;;;2073098;28;20026;-80
2021/11/05 02:56:34;;;;;;;6.25;2.05;;;4.80;99.90;;;;;;2081397;28;20084;-78
2021/11/05 02:57:35;;;;;;;4.67;1.40;;;4.90;99.90;;;;;;2080652;28;20193;-80
2021/11/05 02:58:36;;;;;;;6.77;1.50;;;4.90;99.90;;;;;;2073205;28;20312;-80
2021/11/05 02:59:38;;;;;;;4.60;1.63;;;4.90;99.90;;;;;;2076494;28;20846;-79
2021/11/05 03:00:41;;;;;;;8.10;1.80;;;4.90;99.90;;;;;;2073539;28;20422;-80
2021/11/05 03:01:42;;;;;;;8.90;1.80;;;4.90;99.90;;;;;;2073054;28;20073;-80
2021/11/05 03:02:43;;;;;;;2.58;1.38;;;4.80;99.90;;;;;;2081180;28;20056;-80
2021/11/05 03:03:44;;;;;;;6.75;1.83;;;4.80;99.90;;;;;;2080925;28;20018;-80
2021/11/05 03:04:45;;;;;;;3.30;1.92;;;4.80;99.90;;;;;;2072426;28;20036;-79
2021/11/05 03:05:46;;;;;;;5.03;1.63;;;4.70;99.90;;;;;;2066538;28;20029;-79
2021/11/05 03:06:46;;;;;;;10.13;2.13;;;4.70;99.90;;;;;;2080940;28;20021;-79
2021/11/05 03:07:47;;;;;;;14.13;1.85;;;4.70;99.90;;;;;;2073634;28;20029;-80
2021/11/05 03:08:48;;;;;;;3.25;1.60;;;4.70;99.90;;;;;;2077677;28;20113;-80
2021/11/05 03:09:49;;;;;;;11.30;1.90;;;4.60;99.90;;;;;;2075061;28;20624;-80
2021/11/05 03:10:50;;;;;;;7.30;1.90;;;4.60;99.90;;;;;;2080178;28;20026;-79
2021/11/05 03:11:51;;;;;;;7.38;1.95;;;4.60;99.90;;;;;;2081064;28;20268;-80
2021/11/05 03:12:52;;;;;;;4.32;1.73;;;4.50;99.90;;;;;;2073325;28;20037;-80
2021/11/05 03:13:53;;;;;;;5.18;1.90;;;4.60;99.90;;;;;;2069396;28;20026;-80
2021/11/05 03:14:53;;;;;;;12.88;1.90;;;4.60;99.90;;;;;;2065545;28;20073;-80
2021/11/05 03:15:54;;;;;;;6.57;1.70;;;4.60;99.90;;;;;;2079599;28;20489;-80
2021/11/05 03:16:56;;;;;;;3.22;1.52;;;4.60;99.90;;;;;;2071892;28;20023;-79
2021/11/05 03:18:00;;;;;;;7.47;2.00;;;4.60;99.90;;;;;;2070071;28;20034;-80
2021/11/05 03:19:01;;;;;;;5.47;1.75;;;4.50;99.90;;;;;;2078771;28;20033;-80
2021/11/05 03:20:06;;;;;;;6.38;2.10;;;4.60;99.90;;;;;;2078997;28;20029;-80
2021/11/05 03:21:07;;;;;;;5.80;2.05;;;4.60;99.90;;;;;;2077752;28;20029;-79
2021/11/05 03:22:08;;;;;;;8.35;1.90;;;4.50;99.90;;;;;;2073137;28;20029;-80
2021/11/05 03:23:11;;;;;;;5.65;1.80;;;4.50;99.90;;;;;;2073433;28;20409;-79
2021/11/05 03:24:12;;;;;;;3.47;1.75;;;4.40;99.90;;;;;;2073282;28;20048;-80
2021/11/05 03:25:13;;;;;;;5.13;1.85;;;4.30;99.90;;;;;;2073165;28;20454;-79
2021/11/05 03:26:14;;;;;;;4.60;1.70;;;4.40;99.90;;;;;;2070626;28;20037;-80
2021/11/05 03:27:15;;;;;;;5.13;1.60;;;4.30;99.90;;;;;;2072676;28;20057;-80
2021/11/05 03:28:16;;;;;;;5.15;1.95;;;4.40;99.90;;;;;;2072903;28;20532;-80
2021/11/05 03:29:17;;;;;;;4.68;1.70;;;4.40;99.90;;;;;;2073158;28;20061;-80
2021/11/05 03:30:19;;;;;;;6.13;1.70;;;4.40;99.90;;;;;;2076943;28;20017;-80
2021/11/05 03:31:20;;;;;;;3.80;1.70;;;4.40;99.90;;;;;;2069195;28;20033;-80
2021/11/05 03:32:20;;;;;;;4.10;1.83;;;4.40;99.90;;;;;;2071515;28;20022;-80
2021/11/05 03:33:21;;;;;;;4.35;1.88;;;4.30;99.90;;;;;;2072862;28;20056;-80
2021/11/05 03:34:22;;;;;;;7.25;2.00;;;4.30;99.90;;;;;;2081533;28;20033;-79
2021/11/05 03:35:23;;;;;;;5.47;2.00;;;4.30;99.90;;;;;;2073492;28;20060;-80
2021/11/05 03:36:24;;;;;;;5.28;1.83;;;4.30;99.90;;;;;;2073454;28;20494;-80
2021/11/05 03:37:25;;;;;;;4.93;1.75;;;4.40;99.90;;;;;;2073042;28;20061;-80
2021/11/05 03:38:26;;;;;;;4.30;2.15;;;4.30;99.90;;;;;;2073370;28;20025;-79
2021/11/05 03:39:27;;;;;;;6.63;2.25;;;4.30;99.90;;;;;;2072218;28;20109;-81
2021/11/05 03:40:28;;;;;;;4.10;1.73;;;4.30;99.90;;;;;;2069678;28;20108;-80
2021/11/05 03:41:28;;;;;;;5.40;1.95;;;4.20;99.90;;;;;;2073135;28;20030;-79
2021/11/05 03:42:29;;;;;;;3.47;1.70;;;4.20;99.90;;;;;;2070760;28;20018;-80
2021/11/05 03:43:30;;;;;;;5.30;1.60;;;4.20;99.90;;;;;;2080034;28;20022;-79
2021/11/05 03:44:31;;;;;;;4.45;2.00;;;4.20;99.90;;;;;;2073513;28;20627;-80
2021/11/05 03:45:32;;;;;;;6.85;1.88;;;4.20;99.90;;;;;;2073530;28;20108;-79
2021/11/05 03:46:34;;;;;;;4.78;1.70;;;4.20;99.90;;;;;;2068234;28;20022;-79
2021/11/05 03:47:35;;;;;;;4.05;1.67;;;4.20;99.90;;;;;;2065514;28;20026;-80
2021/11/05 03:48:39;;;;;;;5.32;1.98;;;4.10;99.90;;;;;;2073474;28;20026;-79
2021/11/05 03:49:40;;;;;;;5.88;1.95;;;4.10;99.90;;;;;;2081959;28;20021;-80
2021/11/05 03:50:40;;;;;;;5.63;1.90;;;4.10;99.90;;;;;;2074932;28;20048;-80
2021/11/05 03:51:41;;;;;;;5.10;1.70;;;4.10;99.90;;;;;;2082585;28;20053;-80
2021/11/05 03:52:43;;;;;;;5.07;1.75;;;4.10;99.90;;;;;;2074813;28;20061;-80
2021/11/05 03:53:44;;;;;;;3.25;1.88;;;4.10;99.90;;;;;;2074747;28;20034;-80
2021/11/05 03:54:44;;;;;;;6.10;2.13;;;4.10;99.90;;;;;;2074928;28;20037;-80
2021/11/05 03:55:45;;;;;;;5.63;1.85;;;4.10;99.90;;;;;;2075000;28;20033;-80
2021/11/05 03:56:46;;;;;;;5.38;2.03;;;4.10;99.90;;;;;;2074497;28;20025;-80
2021/11/05 03:57:47;;;;;;;5.22;1.90;;;4.10;99.90;;;;;;2082390;28;20652;-80
2021/11/05 03:58:47;;;;;;;5.75;2.40;;;4.10;99.90;;;;;;2082624;28;20033;-80
2021/11/05 03:59:48;;;;;;;6.72;1.77;;;4.10;99.90;;;;;;2074336;28;20077;-79
2021/11/05 04:00:49;;;;;;;2.75;1.90;;;4.10;99.90;;;;;;2074578;28;20054;-80
2021/11/05 04:01:50;;;;;;;4.30;2.03;;;4.10;99.90;;;;;;2074194;28;20037;-80
2021/11/05 04:02:51;;;;;;;4.15;1.77;;;4.00;99.90;;;;;;2074616;28;20021;-80
2021/11/05 04:03:52;;;;;;;3.92;1.88;;;4.00;99.90;;;;;;2074360;28;20030;-79
2021/11/05 04:04:55;;;;;;;4.60;2.10;;;3.90;99.90;;;;;;2074478;28;20038;-80
2021/11/05 04:05:56;;;;;;;3.95;1.98;;;3.90;99.90;;;;;;2076816;28;20029;-79
2021/11/05 04:06:57;;;;;;;3.90;2.20;;;3.90;99.90;;;;;;2074579;28;20018;-80
2021/11/05 04:07:58;;;;;;;4.35;2.30;;;3.90;99.90;;;;;;2074460;28;20029;-80
2021/11/05 04:08:58;;;;;;;4.80;1.77;;;3.80;99.90;;;;;;2082455;28;20766;-79
2021/11/05 04:09:59;;;;;;;5.47;2.08;;;3.70;99.90;;;;;;2073906;28;20030;-79
2021/11/05 04:11:00;;;;;;;4.40;2.10;;;3.70;99.90;;;;;;2075431;28;20398;-80
2021/11/05 04:12:01;;;;;;;5.57;2.10;;;3.60;99.90;;;;;;2082497;28;20029;-80
2021/11/05 04:13:02;;;;;;;6.03;2.70;;;3.60;99.90;;;;;;2074375;28;20029;-80
2021/11/05 04:14:03;;;;;;;5.35;2.10;;;3.50;99.90;;;;;;2074357;28;20057;-80
2021/11/05 04:15:06;;;;;;;8.38;1.95;;;3.50;99.90;;;;;;2081855;28;20425;-79
2021/11/05 04:16:07;;;;;;;3.03;1.70;;;3.40;99.90;;;;;;2072777;28;20806;-80
2021/11/05 04:17:08;;;;;;;6.72;1.95;;;3.40;99.90;;;;;;2067137;28;20026;-80
2021/11/05 04:18:09;;;;;;;6.82;1.98;;;3.30;99.90;;;;;;2074492;28;20026;-80
2021/11/05 04:19:10;;;;;;;4.65;1.85;;;3.30;99.90;;;;;;2081926;28;20048;-79
2021/11/05 04:20:11;;;;;;;7.25;2.20;;;3.30;99.90;;;;;;2073952;28;20026;-79
2021/11/05 04:21:12;;;;;;;6.43;2.50;;;3.20;99.90;;;;;;2074636;28;20025;-80
2021/11/05 04:22:13;;;;;;;4.07;2.00;;;3.30;99.90;;;;;;2074119;28;20115;-79
2021/11/05 04:23:17;;;;;;;4.45;1.85;;;3.30;99.90;;;;;;2074188;28;20117;-80
2021/11/05 04:24:17;;;;;;;5.28;2.15;;;3.20;99.90;;;;;;2073718;28;20563;-80
2021/11/05 04:25:18;;;;;;;6.07;2.42;;;3.20;99.90;;;;;;2071037;28;20065;-80
2021/11/05 04:26:19;;;;;;;3.25;1.83;;;3.30;99.90;;;;;;2065881;28;20025;-80
2021/11/05 04:27:20;;;;;;;4.13;2.20;;;3.40;99.90;;;;;;2074050;28;20021;-80
2021/11/05 04:28:21;;;;;;;6.13;2.47;;;3.50;99.90;;;;;;2076169;28;20490;-80
2021/11/05 04:29:21;;;;;;;5.72;2.30;;;3.60;99.90;;;;;;2082342;28;20432;-80
2021/11/05 04:30:23;;;;;;;7.95;2.03;;;3.70;99.90;;;;;;2071851;28;20116;-80
2021/11/05 04:31:23;;;;;;;4.97;2.55;;;3.70;99.90;;;;;;2074081;28;20465;-80
2021/11/05 04:32:24;;;;;;;3.65;2.20;;;3.80;99.90;;;;;;2081160;28;20041;-80
2021/11/05 04:33:25;;;;;;;3.95;2.10;;;3.90;99.90;;;;;;2081901;28;20026;-80
2021/11/05 04:34:26;;;;;;;3.17;1.80;;;3.90;99.90;;;;;;2082455;28;20026;-79
2021/11/05 04:35:28;;;;;;;7.00;2.25;;;3.90;99.90;;;;;;2078412;28;20111;-79
2021/11/05 04:36:29;;;;;;;;;;;4.10;99.90;;;;;;2074578;28;20702;-80
2021/11/05 04:37:30;;;;;;;3.30;2.00;;;4.10;99.90;;;;;;2081936;28;19956;-80
2021/11/05 04:38:31;;;;;;;5.05;1.85;;;4.10;99.90;;;;;;2080882;28;20112;-80
2021/11/05 04:39:32;;;;;;;6.40;1.98;;;4.20;99.90;;;;;;2069228;28;20022;-80
2021/11/05 04:40:34;;;;;;;5.63;2.10;;;4.30;99.90;;;;;;2069949;28;20756;-80
2021/11/05 04:41:34;;;;;;;3.53;1.73;;;4.40;99.90;;;;;;2073759;28;20537;-80
2021/11/05 04:42:35;;;;;;;4.15;1.75;;;4.50;99.90;;;;;;2081635;28;20104;-80
2021/11/05 04:43:36;;;;;;;5.28;1.83;;;4.50;99.90;;;;;;2073291;28;20033;-80
2021/11/05 04:44:37;;;;;;;6.57;1.63;;;4.60;99.90;;;;;;2073496;28;20022;-79
2021/11/05 04:45:37;;;;;;;8.63;1.92;;;4.60;99.90;;;;;;2082120;28;20489;-80
2021/11/05 04:46:38;;;;;;;3.83;1.58;;;4.70;99.90;;;;;;2073668;28;20422;-80
2021/11/05 04:47:39;;;;;;;5.10;2.10;;;4.70;99.90;;;;;;2072665;28;20681;-80
2021/11/05 04:48:40;;;;;;;6.88;1.80;;;4.80;99.90;;;;;;2071845;28;20045;-80
2021/11/05 04:49:41;;;;;;;5.03;1.65;;;4.80;99.90;;;;;;2074740;28;20025;-79
2021/11/05 04:50:42;;;;;;;4.97;1.30;;;4.80;99.90;;;;;;2066052;28;20581;-79
2021/11/05 04:51:43;;;;;;;3.78;1.60;;;4.80;99.90;;;;;;2079222;28;20167;-80
2021/11/05 04:52:48;;;;;;;4.50;1.50;;;4.90;99.90;;;;;;2073956;28;20050;-80
2021/11/05 04:53:48;;;;;;;3.25;1.40;;;4.90;99.90;;;;;;2068265;28;20037;-79
2021/11/05 04:54:49;;;;;;;5.28;1.92;;;4.90;99.90;;;;;;2068260;28;20030;-80
2021/11/05 04:55:50;;;;;;;3.47;1.35;;;5.00;99.90;;;;;;2073706;28;20096;-80
2021/11/05 04:56:51;;;;;;;3.83;1.20;;;5.10;99.90;;;;;;2073421;28;20065;-80
2021/11/05 04:57:52;;;;;;;2.63;1.38;;;5.10;99.90;;;;;;2072736;28;20567;-79
2021/11/05 04:58:52;;;;;;;4.97;1.52;;;5.00;99.90;;;;;;2070464;28;20112;-80
2021/11/05 04:59:54;;;;;;;2.72;1.30;;;5.00;99.90;;;;;;2067734;28;20494;-80
2021/11/05 05:00:54;;;;;;;5.63;1.23;;;5.00;99.90;;;;;;2073805;28;20579;-79
2021/11/05 05:01:55;;;;;;;5.03;1.30;;;5.00;99.90;;;;;;2073304;28;20140;-79
2021/11/05 05:02:56;;;;;;;2.55;1.23;;;5.10;99.90;;;;;;2073899;28;20026;-80
2021/11/05 05:03:57;;;;;;;3.30;1.30;;;5.00;99.90;;;;;;2080587;28;20690;-80
2021/11/05 05:04:57;;;;;;;2.88;1.20;;;5.10;99.90;;;;;;2072915;28;20053;-79
2021/11/05 05:05:58;;;;;;;4.18;1.42;;;5.10;99.90;;;;;;2076721;28;20142;-80
2021/11/05 05:06:59;;;;;;;6.18;1.30;;;5.10;99.90;;;;;;2081978;28;20076;-80
2021/11/05 05:08:00;;;;;;;3.20;1.30;;;5.10;99.90;;;;;;2073721;28;20076;-79
2021/11/05 05:09:00;;;;;;;5.10;1.38;;;5.10;99.90;;;;;;2073432;28;20021;-80
2021/11/05 05:10:02;;;;;;;5.75;1.73;;;5.10;99.90;;;;;;2081815;28;20033;-80
2021/11/05 05:11:03;;;;;;;4.85;1.95;;;5.10;99.90;;;;;;2071260;28;20033;-80
2021/11/05 05:12:04;;;;;;;6.55;1.38;;;5.00;99.90;;;;;;2072648;28;20066;-80
2021/11/05 05:13:04;;;;;;;2.78;1.40;;;5.00;99.90;;;;;;2073805;28;20109;-79
2021/11/05 05:14:05;;;;;;;3.42;1.30;;;5.00;99.90;;;;;;2077800;28;20034;-81
2021/11/05 05:15:09;;;;;;;6.05;1.50;;;5.00;99.90;;;;;;2074353;28;20072;-80
2021/11/05 05:16:10;;;;;;;4.15;1.30;;;4.90;99.90;;;;;;2066742;28;20062;-79
2021/11/05 05:17:11;;;;;;;4.30;1.38;;;4.90;99.90;;;;;;2070534;28;20480;-80
2021/11/05 05:18:15;;;;;;;6.43;1.30;;;4.90;99.90;;;;;;2081967;28;20108;-80
2021/11/05 05:19:16;;;;;;;3.42;1.70;;;4.90;99.90;;;;;;2078292;28;20068;-80
2021/11/05 05:20:18;;;;;;;7.50;1.50;;;4.80;99.90;;;;;;2073340;28;20080;-79
2021/11/05 05:21:18;;;;;;;3.55;1.40;;;4.70;99.90;;;;;;2066082;28;20033;-79
2021/11/05 05:22:19;;;;;;;3.70;1.42;;;4.70;99.90;;;;;;2073998;28;20209;-79
2021/11/05 05:23:20;;;;;;;3.22;2.08;;;4.60;99.90;;;;;;2073405;28;20048;-80